Waterford, CT (06385)

2:23 AM EST on January 18, 2017 (GMT -0500)
Jordan Village | | Change Station

Elev 75 ft 41.35 °N, 72.13 °W | Updated 1 day ago

Rain
Rain
35.9 °F
Feels Like 36 °F
N
2.0
Wind Variable Wind from West
Gusts 7.0 mph

Today
High -- | Low -- °F
--% Chance of Precip.
Yesterday
High -- | Low -- °F
Precip. -- in
Pressure 29.95 in
Visibility 2.5 miles
Clouds Overcast 600 ft
Windchill 36 °F
Dew Point -20 °F
Humidity 8%
Rainfall 0.19 in
Snow Depth Not available.
7:10 AM 4:47 PM
Waning Gibbous, 65% visible
METAR KGON 180656Z AUTO 07012KT 2 1/2SM -RA BR OVC006 04/03 A2995 RMK AO2 RAB05 CIG 005V010 SLP141 P0003 T00440033
Pressure 29.95 in
Visibility 2.5 miles
Clouds Overcast 600 ft
Windchill 36 °F
Dew Point -20 °F
Humidity 8%
Rainfall 0.19 in
Snow Depth Not available.
7:10 AM 4:47 PM
Waning Gibbous, 65% visible
METAR KGON 180656Z AUTO 07012KT 2 1/2SM -RA BR OVC006 04/03 A2995 RMK AO2 RAB05 CIG 005V010 SLP141 P0003 T00440033

Get Your Daily Forecast Email!

Thanks for signing up!

Be on the lookout for a verification email in your inbox.

You'll start receiving the daily forecast at 8 AM.

×

10-Day Weather Forecast

Almanac

Astronomy

Jan. 18, 2017 Rise Set
Actual Time
Civil Twilight
Nautical Twilight
Astronomical Twilight
Moon
Length of Visible Light
Length of Day
Tomorrow will be .
, % of the Moon is Illuminated

Today's Extremes

State Highs State Lows

Community

WunderPhotos

Upload Photos

1,962,540 photos uploaded!

WunderBlog® & News

Nearby

Air Quality

  Air Quality AQ Index Pollutant
Not available.

Snow Depth

Station Depth Elevation

Earthquake Activity

City Distance Mag. Time & Date
Minimum magnitude displayed is 2.5.

Coastal Water Temperatures

Place Temperature

Stations

Nearby Weather Stations

Station Location Temp. Windchill Dew Point Humidity Wind Precip. Elev Updated Type
                   

Watches & Warnings

There are currently no watches in effect.